sensor_id;sensor_type;location;lat;lon;timestamp;P1;durP1;ratioP1;P2;durP2;ratioP2
30147;SDS011;16960;49.404;8.248;2023-05-29T00:00:59;4.40;;;3.30;;
30147;SDS011;16960;49.404;8.248;2023-05-29T00:03:26;2.97;;;2.70;;
30147;SDS011;16960;49.404;8.248;2023-05-29T00:05:53;4.07;;;3.60;;
30147;SDS011;16960;49.404;8.248;2023-05-29T00:08:21;3.70;;;3.40;;
30147;SDS011;16960;49.404;8.248;2023-05-29T00:10:48;5.20;;;3.00;;
30147;SDS011;16960;49.404;8.248;2023-05-29T00:13:15;3.70;;;2.83;;
30147;SDS011;16960;49.404;8.248;2023-05-29T00:15:42;4.20;;;3.80;;
30147;SDS011;16960;49.404;8.248;2023-05-29T00:18:09;3.20;;;2.83;;
30147;SDS011;16960;49.404;8.248;2023-05-29T00:20:35;4.00;;;3.27;;
30147;SDS011;16960;49.404;8.248;2023-05-29T00:23:03;4.83;;;2.67;;
30147;SDS011;16960;49.404;8.248;2023-05-29T00:25:32;3.50;;;3.20;;
30147;SDS011;16960;49.404;8.248;2023-05-29T00:27:59;3.40;;;2.97;;
30147;SDS011;16960;49.404;8.248;2023-05-29T00:30:26;3.43;;;3.13;;
30147;SDS011;16960;49.404;8.248;2023-05-29T00:32:53;3.60;;;3.30;;
30147;SDS011;16960;49.404;8.248;2023-05-29T00:35:20;3.90;;;2.80;;
30147;SDS011;16960;49.404;8.248;2023-05-29T00:37:47;2.63;;;2.40;;
30147;SDS011;16960;49.404;8.248;2023-05-29T00:40:14;2.97;;;2.50;;
30147;SDS011;16960;49.404;8.248;2023-05-29T00:42:42;2.90;;;2.47;;
30147;SDS011;16960;49.404;8.248;2023-05-29T00:45:09;3.43;;;3.13;;
30147;SDS011;16960;49.404;8.248;2023-05-29T00:47:38;3.80;;;2.90;;
30147;SDS011;16960;49.404;8.248;2023-05-29T00:50:06;3.70;;;3.00;;
30147;SDS011;16960;49.404;8.248;2023-05-29T00:52:38;3.40;;;2.70;;
30147;SDS011;16960;49.404;8.248;2023-05-29T00:55:07;3.33;;;3.03;;
30147;SDS011;16960;49.404;8.248;2023-05-29T00:57:35;2.90;;;2.70;;
30147;SDS011;16960;49.404;8.248;2023-05-29T01:00:04;3.47;;;2.77;;
30147;SDS011;16960;49.404;8.248;2023-05-29T01:02:35;3.63;;;3.00;;
30147;SDS011;16960;49.404;8.248;2023-05-29T01:05:03;3.30;;;3.00;;
30147;SDS011;16960;49.404;8.248;2023-05-29T01:07:31;3.27;;;2.97;;
30147;SDS011;16960;49.404;8.248;2023-05-29T01:09:58;3.40;;;3.10;;
30147;SDS011;16960;49.404;8.248;2023-05-29T01:12:28;2.80;;;2.60;;
30147;SDS011;16960;49.404;8.248;2023-05-29T01:15:03;3.23;;;2.80;;
30147;SDS011;16960;49.404;8.248;2023-05-29T01:17:42;4.23;;;3.30;;
30147;SDS011;16960;49.404;8.248;2023-05-29T01:20:20;3.00;;;2.63;;
30147;SDS011;16960;49.404;8.248;2023-05-29T01:23:06;3.30;;;3.00;;
30147;SDS011;16960;49.404;8.248;2023-05-29T01:25:56;2.30;;;2.10;;
30147;SDS011;16960;49.404;8.248;2023-05-29T01:28:35;2.87;;;2.60;;
30147;SDS011;16960;49.404;8.248;2023-05-29T01:31:07;3.10;;;2.80;;
30147;SDS011;16960;49.404;8.248;2023-05-29T01:33:38;3.37;;;3.07;;
30147;SDS011;16960;49.404;8.248;2023-05-29T01:36:05;3.03;;;2.77;;
30147;SDS011;16960;49.404;8.248;2023-05-29T01:38:33;3.87;;;2.83;;
30147;SDS011;16960;49.404;8.248;2023-05-29T01:41:00;2.97;;;2.77;;
30147;SDS011;16960;49.404;8.248;2023-05-29T01:43:27;3.10;;;2.80;;
30147;SDS011;16960;49.404;8.248;2023-05-29T01:45:56;3.13;;;2.83;;
30147;SDS011;16960;49.404;8.248;2023-05-29T01:48:24;3.53;;;2.90;;
30147;SDS011;16960;49.404;8.248;2023-05-29T01:50:51;2.90;;;2.60;;
30147;SDS011;16960;49.404;8.248;2023-05-29T01:53:18;2.53;;;2.33;;
30147;SDS011;16960;49.404;8.248;2023-05-29T01:55:45;2.97;;;2.13;;
30147;SDS011;16960;49.404;8.248;2023-05-29T01:58:14;3.00;;;2.70;;
30147;SDS011;16960;49.404;8.248;2023-05-29T02:00:42;2.60;;;2.40;;
30147;SDS011;16960;49.404;8.248;2023-05-29T02:03:10;2.70;;;2.50;;
30147;SDS011;16960;49.404;8.248;2023-05-29T02:05:37;3.00;;;2.70;;
30147;SDS011;16960;49.404;8.248;2023-05-29T02:08:04;3.63;;;2.67;;
30147;SDS011;16960;49.404;8.248;2023-05-29T02:10:31;3.00;;;2.47;;
30147;SDS011;16960;49.404;8.248;2023-05-29T02:12:58;3.10;;;2.80;;
30147;SDS011;16960;49.404;8.248;2023-05-29T02:15:25;2.43;;;2.20;;
30147;SDS011;16960;49.404;8.248;2023-05-29T02:17:52;2.57;;;2.37;;
30147;SDS011;16960;49.404;8.248;2023-05-29T02:20:20;2.90;;;2.37;;
30147;SDS011;16960;49.404;8.248;2023-05-29T02:22:47;3.37;;;2.90;;
30147;SDS011;16960;49.404;8.248;2023-05-29T02:25:14;2.37;;;2.17;;
30147;SDS011;16960;49.404;8.248;2023-05-29T02:27:44;3.70;;;2.60;;
30147;SDS011;16960;49.404;8.248;2023-05-29T02:30:11;3.50;;;2.60;;
30147;SDS011;16960;49.404;8.248;2023-05-29T02:32:38;2.87;;;2.67;;
30147;SDS011;16960;49.404;8.248;2023-05-29T02:35:06;3.00;;;2.30;;
30147;SDS011;16960;49.404;8.248;2023-05-29T02:37:34;2.33;;;2.10;;
30147;SDS011;16960;49.404;8.248;2023-05-29T02:40:01;3.30;;;3.00;;
30147;SDS011;16960;49.404;8.248;2023-05-29T02:42:28;2.50;;;2.30;;
30147;SDS011;16960;49.404;8.248;2023-05-29T02:44:55;2.90;;;2.50;;
30147;SDS011;16960;49.404;8.248;2023-05-29T02:47:22;2.53;;;2.33;;
30147;SDS011;16960;49.404;8.248;2023-05-29T02:49:49;2.83;;;2.60;;
30147;SDS011;16960;49.404;8.248;2023-05-29T02:52:16;3.07;;;2.20;;
30147;SDS011;16960;49.404;8.248;2023-05-29T02:54:44;3.07;;;2.77;;
30147;SDS011;16960;49.404;8.248;2023-05-29T02:57:11;2.63;;;2.43;;
30147;SDS011;16960;49.404;8.248;2023-05-29T02:59:38;3.23;;;2.90;;
30147;SDS011;16960;49.404;8.248;2023-05-29T03:02:05;2.70;;;2.50;;
30147;SDS011;16960;49.404;8.248;2023-05-29T03:04:32;2.63;;;2.43;;
30147;SDS011;16960;49.404;8.248;2023-05-29T03:06:59;2.60;;;2.40;;
30147;SDS011;16960;49.404;8.248;2023-05-29T03:09:26;3.03;;;2.77;;
30147;SDS011;16960;49.404;8.248;2023-05-29T03:11:54;2.50;;;2.30;;
30147;SDS011;16960;49.404;8.248;2023-05-29T03:14:21;4.00;;;3.00;;
30147;SDS011;16960;49.404;8.248;2023-05-29T03:16:48;2.53;;;2.30;;
30147;SDS011;16960;49.404;8.248;2023-05-29T03:19:16;2.47;;;2.27;;
30147;SDS011;16960;49.404;8.248;2023-05-29T03:21:43;3.10;;;2.50;;
30147;SDS011;16960;49.404;8.248;2023-05-29T03:24:11;2.50;;;2.17;;
30147;SDS011;16960;49.404;8.248;2023-05-29T03:26:38;2.43;;;2.23;;
30147;SDS011;16960;49.404;8.248;2023-05-29T03:29:07;2.70;;;2.50;;
30147;SDS011;16960;49.404;8.248;2023-05-29T03:31:34;2.10;;;1.90;;
30147;SDS011;16960;49.404;8.248;2023-05-29T03:34:01;2.50;;;2.30;;
30147;SDS011;16960;49.404;8.248;2023-05-29T03:36:28;2.70;;;2.50;;
30147;SDS011;16960;49.404;8.248;2023-05-29T03:38:55;3.00;;;2.70;;
30147;SDS011;16960;49.404;8.248;2023-05-29T03:41:21;2.40;;;2.20;;
30147;SDS011;16960;49.404;8.248;2023-05-29T03:43:48;1.80;;;1.70;;
30147;SDS011;16960;49.404;8.248;2023-05-29T03:46:17;2.70;;;2.43;;
30147;SDS011;16960;49.404;8.248;2023-05-29T03:48:44;2.23;;;2.03;;
30147;SDS011;16960;49.404;8.248;2023-05-29T03:51:11;2.80;;;2.40;;
30147;SDS011;16960;49.404;8.248;2023-05-29T03:53:37;2.10;;;1.90;;
30147;SDS011;16960;49.404;8.248;2023-05-29T03:56:05;3.40;;;2.60;;
30147;SDS011;16960;49.404;8.248;2023-05-29T03:58:32;2.47;;;2.10;;
30147;SDS011;16960;49.404;8.248;2023-05-29T04:00:59;2.37;;;2.17;;
30147;SDS011;16960;49.404;8.248;2023-05-29T04:03:27;2.20;;;2.00;;
30147;SDS011;16960;49.404;8.248;2023-05-29T04:05:56;2.10;;;1.90;;
30147;SDS011;16960;49.404;8.248;2023-05-29T04:08:23;2.63;;;2.43;;
30147;SDS011;16960;49.404;8.248;2023-05-29T04:10:50;2.50;;;2.30;;
30147;SDS011;16960;49.404;8.248;2023-05-29T04:13:18;1.90;;;1.73;;
30147;SDS011;16960;49.404;8.248;2023-05-29T04:15:45;3.67;;;2.20;;
30147;SDS011;16960;49.404;8.248;2023-05-29T04:18:12;2.70;;;2.50;;
30147;SDS011;16960;49.404;8.248;2023-05-29T04:20:41;2.50;;;2.30;;
30147;SDS011;16960;49.404;8.248;2023-05-29T04:23:10;2.73;;;2.53;;
30147;SDS011;16960;49.404;8.248;2023-05-29T04:25:37;2.37;;;2.17;;
30147;SDS011;16960;49.404;8.248;2023-05-29T04:28:04;2.50;;;2.00;;
30147;SDS011;16960;49.404;8.248;2023-05-29T04:30:31;2.80;;;2.40;;
30147;SDS011;16960;49.404;8.248;2023-05-29T04:32:58;3.03;;;2.50;;
30147;SDS011;16960;49.404;8.248;2023-05-29T04:35:25;3.03;;;2.63;;
30147;SDS011;16960;49.404;8.248;2023-05-29T04:37:55;3.30;;;2.20;;
30147;SDS011;16960;49.404;8.248;2023-05-29T04:40:22;2.30;;;2.10;;
30147;SDS011;16960;49.404;8.248;2023-05-29T04:42:49;2.07;;;1.97;;
30147;SDS011;16960;49.404;8.248;2023-05-29T04:45:19;4.27;;;3.20;;
30147;SDS011;16960;49.404;8.248;2023-05-29T04:47:47;2.60;;;2.37;;
30147;SDS011;16960;49.404;8.248;2023-05-29T04:50:15;2.73;;;2.30;;
30147;SDS011;16960;49.404;8.248;2023-05-29T04:52:42;2.27;;;2.07;;
30147;SDS011;16960;49.404;8.248;2023-05-29T04:55:11;2.67;;;2.47;;
30147;SDS011;16960;49.404;8.248;2023-05-29T04:57:38;2.50;;;2.30;;
30147;SDS011;16960;49.404;8.248;2023-05-29T05:00:06;2.20;;;2.00;;
30147;SDS011;16960;49.404;8.248;2023-05-29T05:02:39;2.40;;;2.20;;
30147;SDS011;16960;49.404;8.248;2023-05-29T05:05:07;2.37;;;2.07;;
30147;SDS011;16960;49.404;8.248;2023-05-29T05:07:34;2.77;;;2.30;;
30147;SDS011;16960;49.404;8.248;2023-05-29T05:10:01;2.40;;;2.20;;
30147;SDS011;16960;49.404;8.248;2023-05-29T05:12:29;2.50;;;2.30;;
30147;SDS011;16960;49.404;8.248;2023-05-29T05:14:56;2.20;;;1.93;;
30147;SDS011;16960;49.404;8.248;2023-05-29T05:17:23;2.30;;;2.10;;
30147;SDS011;16960;49.404;8.248;2023-05-29T05:19:50;2.20;;;1.80;;
30147;SDS011;16960;49.404;8.248;2023-05-29T05:22:19;2.23;;;2.03;;
30147;SDS011;16960;49.404;8.248;2023-05-29T05:24:46;2.33;;;2.10;;
30147;SDS011;16960;49.404;8.248;2023-05-29T05:27:13;1.90;;;1.80;;
30147;SDS011;16960;49.404;8.248;2023-05-29T05:29:42;2.43;;;2.23;;
30147;SDS011;16960;49.404;8.248;2023-05-29T05:32:09;2.43;;;2.17;;
30147;SDS011;16960;49.404;8.248;2023-05-29T05:34:36;2.50;;;2.20;;
30147;SDS011;16960;49.404;8.248;2023-05-29T05:37:03;2.67;;;2.47;;
30147;SDS011;16960;49.404;8.248;2023-05-29T05:39:30;2.57;;;2.27;;
30147;SDS011;16960;49.404;8.248;2023-05-29T05:41:57;2.37;;;2.17;;
30147;SDS011;16960;49.404;8.248;2023-05-29T05:44:24;1.93;;;1.83;;
30147;SDS011;16960;49.404;8.248;2023-05-29T05:46:52;2.30;;;2.10;;
30147;SDS011;16960;49.404;8.248;2023-05-29T05:49:20;2.50;;;2.30;;
30147;SDS011;16960;49.404;8.248;2023-05-29T05:51:46;2.47;;;2.27;;
30147;SDS011;16960;49.404;8.248;2023-05-29T05:54:13;2.23;;;2.03;;
30147;SDS011;16960;49.404;8.248;2023-05-29T05:56:40;2.20;;;1.93;;
30147;SDS011;16960;49.404;8.248;2023-05-29T05:59:07;2.20;;;2.00;;
30147;SDS011;16960;49.404;8.248;2023-05-29T06:01:34;1.93;;;1.80;;
30147;SDS011;16960;49.404;8.248;2023-05-29T06:04:03;2.87;;;2.67;;
30147;SDS011;16960;49.404;8.248;2023-05-29T06:06:30;1.90;;;1.80;;
30147;SDS011;16960;49.404;8.248;2023-05-29T06:08:57;2.30;;;1.97;;
30147;SDS011;16960;49.404;8.248;2023-05-29T06:11:24;2.40;;;2.20;;
30147;SDS011;16960;49.404;8.248;2023-05-29T06:13:51;4.70;;;2.77;;
30147;SDS011;16960;49.404;8.248;2023-05-29T06:16:18;2.40;;;2.20;;
30147;SDS011;16960;49.404;8.248;2023-05-29T06:18:45;2.43;;;2.00;;
30147;SDS011;16960;49.404;8.248;2023-05-29T06:21:13;2.20;;;2.00;;
30147;SDS011;16960;49.404;8.248;2023-05-29T06:23:41;2.13;;;1.93;;
30147;SDS011;16960;49.404;8.248;2023-05-29T06:26:08;2.00;;;1.83;;
30147;SDS011;16960;49.404;8.248;2023-05-29T06:28:36;1.90;;;1.80;;
30147;SDS011;16960;49.404;8.248;2023-05-29T06:31:03;2.67;;;2.47;;
30147;SDS011;16960;49.404;8.248;2023-05-29T06:33:30;1.80;;;1.70;;
30147;SDS011;16960;49.404;8.248;2023-05-29T06:35:57;2.50;;;2.13;;
30147;SDS011;16960;49.404;8.248;2023-05-29T06:38:25;2.53;;;1.90;;
30147;SDS011;16960;49.404;8.248;2023-05-29T06:40:52;2.20;;;2.00;;
30147;SDS011;16960;49.404;8.248;2023-05-29T06:43:19;2.87;;;2.53;;
30147;SDS011;16960;49.404;8.248;2023-05-29T06:45:46;2.40;;;2.13;;
30147;SDS011;16960;49.404;8.248;2023-05-29T06:48:13;2.13;;;1.73;;
30147;SDS011;16960;49.404;8.248;2023-05-29T06:50:40;2.37;;;2.10;;
30147;SDS011;16960;49.404;8.248;2023-05-29T06:53:07;2.60;;;2.40;;
30147;SDS011;16960;49.404;8.248;2023-05-29T06:55:35;2.00;;;1.80;;
30147;SDS011;16960;49.404;8.248;2023-05-29T06:58:02;1.73;;;1.63;;
30147;SDS011;16960;49.404;8.248;2023-05-29T07:00:29;3.23;;;2.10;;
30147;SDS011;16960;49.404;8.248;2023-05-29T07:02:56;2.20;;;2.00;;
30147;SDS011;16960;49.404;8.248;2023-05-29T07:05:23;2.13;;;1.93;;
30147;SDS011;16960;49.404;8.248;2023-05-29T07:07:50;2.57;;;2.30;;
30147;SDS011;16960;49.404;8.248;2023-05-29T07:10:17;2.53;;;2.20;;
30147;SDS011;16960;49.404;8.248;2023-05-29T07:12:45;3.20;;;2.30;;
30147;SDS011;16960;49.404;8.248;2023-05-29T07:15:12;3.40;;;2.03;;
30147;SDS011;16960;49.404;8.248;2023-05-29T07:17:39;3.60;;;3.07;;
30147;SDS011;16960;49.404;8.248;2023-05-29T07:20:07;3.30;;;2.40;;
30147;SDS011;16960;49.404;8.248;2023-05-29T07:22:34;5.00;;;2.53;;
30147;SDS011;16960;49.404;8.248;2023-05-29T07:25:02;3.93;;;2.03;;
30147;SDS011;16960;49.404;8.248;2023-05-29T07:27:29;4.50;;;2.30;;
30147;SDS011;16960;49.404;8.248;2023-05-29T07:29:57;2.63;;;2.00;;
30147;SDS011;16960;49.404;8.248;2023-05-29T07:32:24;2.83;;;2.13;;
30147;SDS011;16960;49.404;8.248;2023-05-29T07:34:51;3.23;;;2.73;;
30147;SDS011;16960;49.404;8.248;2023-05-29T07:37:20;4.47;;;2.93;;
30147;SDS011;16960;49.404;8.248;2023-05-29T07:39:46;3.57;;;2.50;;
30147;SDS011;16960;49.404;8.248;2023-05-29T07:42:13;3.00;;;2.70;;
30147;SDS011;16960;49.404;8.248;2023-05-29T07:44:40;2.87;;;2.57;;
30147;SDS011;16960;49.404;8.248;2023-05-29T07:47:09;2.60;;;2.40;;
30147;SDS011;16960;49.404;8.248;2023-05-29T07:49:36;2.80;;;2.60;;
30147;SDS011;16960;49.404;8.248;2023-05-29T07:52:03;3.00;;;2.70;;
30147;SDS011;16960;49.404;8.248;2023-05-29T07:54:31;4.10;;;2.60;;
30147;SDS011;16960;49.404;8.248;2023-05-29T07:56:58;2.70;;;2.50;;
30147;SDS011;16960;49.404;8.248;2023-05-29T07:59:25;2.97;;;2.50;;
30147;SDS011;16960;49.404;8.248;2023-05-29T08:01:52;3.23;;;2.63;;
30147;SDS011;16960;49.404;8.248;2023-05-29T08:04:24;2.87;;;2.63;;
30147;SDS011;16960;49.404;8.248;2023-05-29T08:06:51;3.33;;;2.83;;
30147;SDS011;16960;49.404;8.248;2023-05-29T08:09:18;2.83;;;2.57;;
30147;SDS011;16960;49.404;8.248;2023-05-29T08:11:45;4.93;;;2.40;;
30147;SDS011;16960;49.404;8.248;2023-05-29T08:14:13;3.60;;;2.60;;
30147;SDS011;16960;49.404;8.248;2023-05-29T08:16:40;2.50;;;2.30;;
30147;SDS011;16960;49.404;8.248;2023-05-29T08:19:07;2.80;;;2.60;;
30147;SDS011;16960;49.404;8.248;2023-05-29T08:21:36;2.97;;;2.60;;
30147;SDS011;16960;49.404;8.248;2023-05-29T08:24:04;2.60;;;2.40;;
30147;SDS011;16960;49.404;8.248;2023-05-29T08:26:31;3.57;;;2.63;;
30147;SDS011;16960;49.404;8.248;2023-05-29T08:28:58;4.27;;;3.00;;
30147;SDS011;16960;49.404;8.248;2023-05-29T08:31:25;4.60;;;2.90;;
30147;SDS011;16960;49.404;8.248;2023-05-29T08:33:52;5.00;;;2.80;;
30147;SDS011;16960;49.404;8.248;2023-05-29T08:36:20;5.83;;;3.20;;
30147;SDS011;16960;49.404;8.248;2023-05-29T08:38:48;7.50;;;3.37;;
30147;SDS011;16960;49.404;8.248;2023-05-29T08:41:17;6.93;;;3.30;;
30147;SDS011;16960;49.404;8.248;2023-05-29T08:43:50;7.20;;;3.93;;
30147;SDS011;16960;49.404;8.248;2023-05-29T08:46:19;6.53;;;3.70;;
30147;SDS011;16960;49.404;8.248;2023-05-29T08:48:47;4.90;;;3.40;;
30147;SDS011;16960;49.404;8.248;2023-05-29T08:51:15;8.97;;;4.20;;
30147;SDS011;16960;49.404;8.248;2023-05-29T08:53:44;6.50;;;3.80;;
30147;SDS011;16960;49.404;8.248;2023-05-29T08:56:12;3.90;;;3.30;;
30147;SDS011;16960;49.404;8.248;2023-05-29T08:58:39;6.17;;;3.70;;
30147;SDS011;16960;49.404;8.248;2023-05-29T09:01:07;4.63;;;3.90;;
30147;SDS011;16960;49.404;8.248;2023-05-29T09:03:34;4.67;;;3.57;;
30147;SDS011;16960;49.404;8.248;2023-05-29T09:06:03;5.00;;;3.30;;
30147;SDS011;16960;49.404;8.248;2023-05-29T09:08:32;6.90;;;4.53;;
30147;SDS011;16960;49.404;8.248;2023-05-29T09:10:59;12.10;;;4.47;;
30147;SDS011;16960;49.404;8.248;2023-05-29T09:13:27;5.80;;;3.30;;
30147;SDS011;16960;49.404;8.248;2023-05-29T09:15:56;4.70;;;3.77;;
30147;SDS011;16960;49.404;8.248;2023-05-29T09:18:28;4.60;;;3.33;;
30147;SDS011;16960;49.404;8.248;2023-05-29T09:20:56;6.30;;;3.90;;
30147;SDS011;16960;49.404;8.248;2023-05-29T09:23:23;3.93;;;3.47;;
30147;SDS011;16960;49.404;8.248;2023-05-29T09:25:52;5.23;;;3.93;;
30147;SDS011;16960;49.404;8.248;2023-05-29T09:28:20;4.57;;;3.67;;
30147;SDS011;16960;49.404;8.248;2023-05-29T09:31:01;5.13;;;4.00;;
30147;SDS011;16960;49.404;8.248;2023-05-29T09:33:28;3.97;;;3.50;;
30147;SDS011;16960;49.404;8.248;2023-05-29T09:35:56;5.30;;;4.10;;
30147;SDS011;16960;49.404;8.248;2023-05-29T09:38:25;4.53;;;4.13;;
30147;SDS011;16960;49.404;8.248;2023-05-29T09:40:52;5.70;;;3.83;;
30147;SDS011;16960;49.404;8.248;2023-05-29T09:43:23;4.33;;;3.20;;
30147;SDS011;16960;49.404;8.248;2023-05-29T09:45:50;4.80;;;3.60;;
30147;SDS011;16960;49.404;8.248;2023-05-29T09:48:21;5.33;;;3.80;;
30147;SDS011;16960;49.404;8.248;2023-05-29T09:50:49;4.77;;;3.80;;
30147;SDS011;16960;49.404;8.248;2023-05-29T09:53:17;5.13;;;3.70;;
30147;SDS011;16960;49.404;8.248;2023-05-29T09:55:45;5.10;;;3.63;;
30147;SDS011;16960;49.404;8.248;2023-05-29T09:58:13;4.93;;;3.17;;
30147;SDS011;16960;49.404;8.248;2023-05-29T10:00:40;6.03;;;3.67;;
30147;SDS011;16960;49.404;8.248;2023-05-29T10:03:08;7.77;;;3.90;;
30147;SDS011;16960;49.404;8.248;2023-05-29T10:05:38;3.87;;;3.57;;
30147;SDS011;16960;49.404;8.248;2023-05-29T10:08:05;6.70;;;3.80;;
30147;SDS011;16960;49.404;8.248;2023-05-29T10:10:38;3.40;;;3.10;;
30147;SDS011;16960;49.404;8.248;2023-05-29T10:13:11;4.43;;;3.47;;
30147;SDS011;16960;49.404;8.248;2023-05-29T10:15:39;4.10;;;3.43;;
30147;SDS011;16960;49.404;8.248;2023-05-29T10:18:11;4.80;;;3.43;;
30147;SDS011;16960;49.404;8.248;2023-05-29T10:20:41;5.17;;;3.70;;
30147;SDS011;16960;49.404;8.248;2023-05-29T10:23:10;5.00;;;3.70;;
30147;SDS011;16960;49.404;8.248;2023-05-29T10:25:39;3.50;;;3.13;;
30147;SDS011;16960;49.404;8.248;2023-05-29T10:28:08;3.63;;;3.27;;
30147;SDS011;16960;49.404;8.248;2023-05-29T10:30:36;4.13;;;3.37;;
30147;SDS011;16960;49.404;8.248;2023-05-29T10:33:09;4.77;;;4.00;;
30147;SDS011;16960;49.404;8.248;2023-05-29T10:35:51;9.53;;;3.57;;
30147;SDS011;16960;49.404;8.248;2023-05-29T10:38:21;3.83;;;3.20;;
30147;SDS011;16960;49.404;8.248;2023-05-29T10:40:50;3.57;;;3.27;;
30147;SDS011;16960;49.404;8.248;2023-05-29T10:45:59;4.00;;;3.57;;
30147;SDS011;16960;49.404;8.248;2023-05-29T10:48:37;3.80;;;3.50;;
30147;SDS011;16960;49.404;8.248;2023-05-29T10:51:23;3.20;;;2.90;;
30147;SDS011;16960;49.404;8.248;2023-05-29T10:53:51;4.53;;;3.40;;
30147;SDS011;16960;49.404;8.248;2023-05-29T10:56:22;3.10;;;2.80;;
30147;SDS011;16960;49.404;8.248;2023-05-29T10:58:55;4.03;;;3.37;;
30147;SDS011;16960;49.404;8.248;2023-05-29T11:01:26;3.83;;;2.80;;
30147;SDS011;16960;49.404;8.248;2023-05-29T11:04:00;3.20;;;2.90;;
30147;SDS011;16960;49.404;8.248;2023-05-29T11:06:58;3.20;;;3.00;;
30147;SDS011;16960;49.404;8.248;2023-05-29T11:09:26;3.87;;;3.33;;
30147;SDS011;16960;49.404;8.248;2023-05-29T11:15:01;2.60;;;2.40;;
30147;SDS011;16960;49.404;8.248;2023-05-29T11:17:31;3.60;;;3.30;;
30147;SDS011;16960;49.404;8.248;2023-05-29T11:20:03;3.07;;;2.83;;
30147;SDS011;16960;49.404;8.248;2023-05-29T11:22:40;3.67;;;3.10;;
30147;SDS011;16960;49.404;8.248;2023-05-29T11:25:20;4.40;;;3.20;;
30147;SDS011;16960;49.404;8.248;2023-05-29T11:27:48;5.40;;;3.13;;
30147;SDS011;16960;49.404;8.248;2023-05-29T11:30:17;3.40;;;2.87;;
30147;SDS011;16960;49.404;8.248;2023-05-29T11:32:44;4.83;;;3.30;;
30147;SDS011;16960;49.404;8.248;2023-05-29T11:35:12;2.83;;;2.63;;
30147;SDS011;16960;49.404;8.248;2023-05-29T11:37:42;3.50;;;3.20;;
30147;SDS011;16960;49.404;8.248;2023-05-29T11:40:11;3.87;;;3.13;;
30147;SDS011;16960;49.404;8.248;2023-05-29T11:42:40;3.60;;;2.77;;
30147;SDS011;16960;49.404;8.248;2023-05-29T11:45:13;3.10;;;2.60;;
30147;SDS011;16960;49.404;8.248;2023-05-29T11:47:51;3.27;;;2.90;;
30147;SDS011;16960;49.404;8.248;2023-05-29T11:50:19;2.80;;;2.50;;
30147;SDS011;16960;49.404;8.248;2023-05-29T11:52:48;3.67;;;3.30;;
30147;SDS011;16960;49.404;8.248;2023-05-29T11:55:17;4.33;;;3.20;;
30147;SDS011;16960;49.404;8.248;2023-05-29T11:57:45;4.23;;;3.53;;
30147;SDS011;16960;49.404;8.248;2023-05-29T12:00:13;6.30;;;3.10;;
30147;SDS011;16960;49.404;8.248;2023-05-29T12:02:41;4.37;;;3.17;;
30147;SDS011;16960;49.404;8.248;2023-05-29T12:05:09;4.00;;;3.43;;
30147;SDS011;16960;49.404;8.248;2023-05-29T12:07:46;4.77;;;3.33;;
30147;SDS011;16960;49.404;8.248;2023-05-29T12:10:16;3.00;;;2.70;;
30147;SDS011;16960;49.404;8.248;2023-05-29T12:12:46;4.50;;;3.03;;
30147;SDS011;16960;49.404;8.248;2023-05-29T12:15:14;3.20;;;2.83;;
30147;SDS011;16960;49.404;8.248;2023-05-29T12:17:43;7.13;;;3.07;;
30147;SDS011;16960;49.404;8.248;2023-05-29T12:20:11;3.63;;;2.80;;
30147;SDS011;16960;49.404;8.248;2023-05-29T12:22:39;4.70;;;2.80;;
30147;SDS011;16960;49.404;8.248;2023-05-29T12:25:08;2.93;;;2.47;;
30147;SDS011;16960;49.404;8.248;2023-05-29T12:27:38;5.33;;;2.67;;
30147;SDS011;16960;49.404;8.248;2023-05-29T12:30:11;3.57;;;2.67;;
30147;SDS011;16960;49.404;8.248;2023-05-29T12:32:41;2.93;;;2.63;;
30147;SDS011;16960;49.404;8.248;2023-05-29T12:35:12;2.97;;;2.60;;
30147;SDS011;16960;49.404;8.248;2023-05-29T12:37:44;6.83;;;2.80;;
30147;SDS011;16960;49.404;8.248;2023-05-29T12:40:19;2.90;;;2.63;;
30147;SDS011;16960;49.404;8.248;2023-05-29T12:42:54;4.03;;;2.83;;
30147;SDS011;16960;49.404;8.248;2023-05-29T12:45:24;5.20;;;3.20;;
30147;SDS011;16960;49.404;8.248;2023-05-29T12:47:52;5.33;;;3.90;;
30147;SDS011;16960;49.404;8.248;2023-05-29T12:50:24;4.63;;;2.50;;
30147;SDS011;16960;49.404;8.248;2023-05-29T12:52:55;7.23;;;2.80;;
30147;SDS011;16960;49.404;8.248;2023-05-29T12:55:23;7.10;;;3.00;;
30147;SDS011;16960;49.404;8.248;2023-05-29T12:57:51;3.40;;;3.10;;
30147;SDS011;16960;49.404;8.248;2023-05-29T13:00:19;3.40;;;2.97;;
30147;SDS011;16960;49.404;8.248;2023-05-29T13:02:47;4.20;;;2.60;;
30147;SDS011;16960;49.404;8.248;2023-05-29T13:05:15;4.03;;;2.70;;
30147;SDS011;16960;49.404;8.248;2023-05-29T13:07:44;4.60;;;3.20;;
30147;SDS011;16960;49.404;8.248;2023-05-29T13:10:13;8.10;;;3.00;;
30147;SDS011;16960;49.404;8.248;2023-05-29T13:12:40;2.63;;;2.30;;
30147;SDS011;16960;49.404;8.248;2023-05-29T13:15:09;3.20;;;2.93;;
30147;SDS011;16960;49.404;8.248;2023-05-29T13:17:37;6.50;;;3.10;;
30147;SDS011;16960;49.404;8.248;2023-05-29T13:20:06;3.53;;;2.60;;
30147;SDS011;16960;49.404;8.248;2023-05-29T13:22:36;3.73;;;2.33;;
30147;SDS011;16960;49.404;8.248;2023-05-29T13:25:03;5.07;;;3.00;;
30147;SDS011;16960;49.404;8.248;2023-05-29T13:27:31;3.60;;;2.40;;
30147;SDS011;16960;49.404;8.248;2023-05-29T13:30:00;3.33;;;2.70;;
30147;SDS011;16960;49.404;8.248;2023-05-29T13:32:29;2.80;;;2.60;;
30147;SDS011;16960;49.404;8.248;2023-05-29T13:34:56;5.97;;;2.97;;
30147;SDS011;16960;49.404;8.248;2023-05-29T13:37:23;4.57;;;2.53;;
30147;SDS011;16960;49.404;8.248;2023-05-29T13:39:52;4.23;;;3.23;;
30147;SDS011;16960;49.404;8.248;2023-05-29T13:42:19;3.17;;;2.87;;
30147;SDS011;16960;49.404;8.248;2023-05-29T13:44:47;2.30;;;2.10;;
30147;SDS011;16960;49.404;8.248;2023-05-29T13:47:15;3.80;;;2.87;;
30147;SDS011;16960;49.404;8.248;2023-05-29T13:49:44;3.33;;;3.00;;
30147;SDS011;16960;49.404;8.248;2023-05-29T13:52:11;3.50;;;2.90;;
30147;SDS011;16960;49.404;8.248;2023-05-29T13:54:38;4.23;;;3.20;;
30147;SDS011;16960;49.404;8.248;2023-05-29T13:57:05;4.47;;;3.03;;
30147;SDS011;16960;49.404;8.248;2023-05-29T13:59:33;4.40;;;2.83;;
30147;SDS011;16960;49.404;8.248;2023-05-29T14:02:00;3.20;;;2.90;;
30147;SDS011;16960;49.404;8.248;2023-05-29T14:04:28;3.27;;;2.93;;
30147;SDS011;16960;49.404;8.248;2023-05-29T14:06:57;3.70;;;3.30;;
30147;SDS011;16960;49.404;8.248;2023-05-29T14:09:24;3.20;;;2.90;;
30147;SDS011;16960;49.404;8.248;2023-05-29T14:11:53;3.80;;;3.50;;
30147;SDS011;16960;49.404;8.248;2023-05-29T14:14:20;3.03;;;2.73;;
30147;SDS011;16960;49.404;8.248;2023-05-29T14:16:48;3.27;;;2.97;;
30147;SDS011;16960;49.404;8.248;2023-05-29T14:19:16;3.47;;;2.83;;
30147;SDS011;16960;49.404;8.248;2023-05-29T14:21:44;2.80;;;2.20;;
30147;SDS011;16960;49.404;8.248;2023-05-29T14:24:12;3.33;;;2.80;;
30147;SDS011;16960;49.404;8.248;2023-05-29T14:26:40;3.50;;;2.67;;
30147;SDS011;16960;49.404;8.248;2023-05-29T14:29:10;3.30;;;3.00;;
30147;SDS011;16960;49.404;8.248;2023-05-29T14:31:38;2.83;;;2.63;;
30147;SDS011;16960;49.404;8.248;2023-05-29T14:34:05;4.03;;;2.67;;
30147;SDS011;16960;49.404;8.248;2023-05-29T14:36:32;3.53;;;2.60;;
30147;SDS011;16960;49.404;8.248;2023-05-29T14:39:00;2.70;;;2.50;;
30147;SDS011;16960;49.404;8.248;2023-05-29T14:41:29;3.93;;;3.00;;
30147;SDS011;16960;49.404;8.248;2023-05-29T14:43:56;2.97;;;2.30;;
30147;SDS011;16960;49.404;8.248;2023-05-29T14:46:24;4.13;;;2.43;;
30147;SDS011;16960;49.404;8.248;2023-05-29T14:48:53;3.23;;;2.70;;
30147;SDS011;16960;49.404;8.248;2023-05-29T14:51:20;3.30;;;2.60;;
30147;SDS011;16960;49.404;8.248;2023-05-29T14:53:48;6.33;;;3.40;;
30147;SDS011;16960;49.404;8.248;2023-05-29T14:56:15;3.23;;;2.93;;
30147;SDS011;16960;49.404;8.248;2023-05-29T14:58:44;2.60;;;2.40;;
30147;SDS011;16960;49.404;8.248;2023-05-29T15:01:13;3.27;;;2.13;;